Aérodrome :
LOGIN :

S'inscrire | Disclaimer

   EN    FR    IT 

 










Légende :    VFR   VFR Marginal   IFR   IFR Intensif   IFR Très Intensif
Visi : 
Plafond : 
>= 8 km
>= 3000ft
5 à 8 km
1000 à 3000 ft
1500m à 5 km
500 à 1000 ft
800 à 1500m
200 à 500 ft
< 800m
< 200 ft
Symboles :   Orages  Brouillard  Fortes neiges  Fortes précipitations  Vent > 20 kt
SIGMETs :   Divers  Orages  Givrage  Turbulence  Onde Orograph.  Cendres Volcan.






- Altitude de l'aérodrome : 1306 ft
- Code IATA : ACH


LSZR - Alten Rhein

DERNIER METAR :
  • 031920Z AUTO 20002KT 9999 BKN090 18/15 Q1020

METARs EXPIRÉS :
  • 031850Z AUTO VRB01KT 9999 OVC090 19/16 Q1020
  • 031820Z AUTO VRB01KT 9999 FEW070 OVC090 19/14 Q1020
  • 031750Z 33003KT 9999 BKN080 20/12 Q1020 NOSIG RMK O
  • 031720Z 33003KT 9999 BKN080 20/12 Q1020 NOSIG RMK N
  • 031650Z 33003KT 9999 BKN080 20/12 Q1020 NOSIG RMK N

TAF TAF LSZR
Valide du 03 à 15h jusqu'au 04 à 00h UTC


031425Z 0315/0324 32005KT 9999 FEW045 SCT060
ATIS : +41 71 858 51 66



MET'MAP, la Météo Aéronautique d'un coup d'oeil ! - Copyright ORBIFLY Décembre 2007 - Disclaimer

ORBIFLY MET'MAP TEAM :

Programmation & Développement : Alexandra Zaïnal
Sur une idée originale de : Baudouin d'Aumeries
Assistance à la programmation : Marc-Olivier Méhu
Soutien technique & logistique : Manuel Goepfert

Contact : metmap@orbifly.com




SOURCES & CREDITS :

   NOAA